createdAt,value
2022-09-14T00:02:26.471Z,7.32
2022-09-14T00:04:56.215Z,8.43
2022-09-14T00:07:26.024Z,9.63
2022-09-14T00:09:55.828Z,8.48
2022-09-14T00:12:25.544Z,6.93
2022-09-14T00:14:55.283Z,8.02
2022-09-14T00:17:25.051Z,9.48
2022-09-14T00:19:54.959Z,8.73
2022-09-14T00:22:24.772Z,8.45
2022-09-14T00:24:54.483Z,8.48
2022-09-14T00:27:24.206Z,6.85
2022-09-14T00:29:53.884Z,6.40
2022-09-14T00:32:23.605Z,11.35
2022-09-14T00:34:53.443Z,6.78
2022-09-14T00:37:23.132Z,7.25
2022-09-14T00:39:52.912Z,7.75
2022-09-14T00:42:22.851Z,7.43
2022-09-14T00:44:54.796Z,6.93
2022-09-14T00:47:24.770Z,9.02
2022-09-14T00:49:54.643Z,13.27
2022-09-14T00:52:33.089Z,7.50
2022-09-14T00:55:05.993Z,9.63
2022-09-14T00:57:52.107Z,9.55
2022-09-14T01:00:24.751Z,12.30
2022-09-14T01:02:54.622Z,6.00
2022-09-14T01:05:53.536Z,12.07
2022-09-14T01:08:44.015Z,12.50
2022-09-14T01:11:19.976Z,11.10
2022-09-14T01:14:04.273Z,10.30
2022-09-14T01:16:42.722Z,7.82
2022-09-14T01:19:16.656Z,8.18
2022-09-14T01:21:46.632Z,9.93
2022-09-14T01:24:37.601Z,7.97
2022-09-14T01:27:25.222Z,9.93
2022-09-14T01:30:01.865Z,7.40
2022-09-14T01:32:54.545Z,8.10
2022-09-14T01:35:42.712Z,11.13
2022-09-14T01:38:36.106Z,8.63
2022-09-14T01:41:10.836Z,7.63
2022-09-14T01:43:50.225Z,11.20
2022-09-14T01:46:26.403Z,7.50
2022-09-14T01:49:03.694Z,9.45
2022-09-14T01:51:39.480Z,9.40
2022-09-14T01:54:35.037Z,8.80
2022-09-14T01:57:17.217Z,10.07
2022-09-14T01:59:50.966Z,9.52
2022-09-14T02:02:32.649Z,7.22
2022-09-14T02:05:09.040Z,10.20
2022-09-14T02:07:39.003Z,10.75
2022-09-14T02:10:13.036Z,7.15
2022-09-14T02:12:43.881Z,7.22
2022-09-14T02:15:15.335Z,7.55
2022-09-14T02:17:44.020Z,10.23
2022-09-14T02:20:26.203Z,11.57
2022-09-14T02:22:56.170Z,12.40
2022-09-14T02:25:25.528Z,10.65
2022-09-14T02:27:55.363Z,9.55
2022-09-14T02:30:24.800Z,9.05
2022-09-14T02:33:08.446Z,6.60
2022-09-14T02:36:31.028Z,7.90
2022-09-14T02:39:18.388Z,9.43
2022-09-14T02:41:57.290Z,9.98
2022-09-14T02:44:52.702Z,11.35
2022-09-14T02:47:34.137Z,10.40
2022-09-14T02:50:09.656Z,12.45
2022-09-14T02:53:05.147Z,9.30
2022-09-14T02:55:45.115Z,12.18
2022-09-14T02:58:15.777Z,11.20
2022-09-14T03:00:47.899Z,14.23
2022-09-14T03:03:21.856Z,9.55
2022-09-14T03:05:51.533Z,8.13
2022-09-14T03:08:21.287Z,9.40
2022-09-14T03:10:51.383Z,8.98
2022-09-14T03:13:21.329Z,8.25
2022-09-14T03:15:48.353Z,15.70
2022-09-14T03:18:18.037Z,9.63
2022-09-14T03:20:47.811Z,11.60
2022-09-14T03:23:17.576Z,12.20
2022-09-14T03:25:47.338Z,10.07
2022-09-14T03:28:17.053Z,12.27
2022-09-14T03:30:46.747Z,9.57
2022-09-14T03:33:16.612Z,10.68
2022-09-14T03:35:46.422Z,7.53
2022-09-14T03:38:16.186Z,9.82
2022-09-14T03:40:45.868Z,9.43
2022-09-14T03:43:15.713Z,8.05
2022-09-14T03:45:45.520Z,15.10
2022-09-14T03:48:15.806Z,12.23
2022-09-14T03:50:45.567Z,8.65
2022-09-14T03:53:15.351Z,7.80
2022-09-14T03:55:45.111Z,8.32
2022-09-14T03:58:14.778Z,8.20
2022-09-14T04:00:44.616Z,10.02
2022-09-14T04:03:14.591Z,8.35
2022-09-14T04:05:53.678Z,8.45
2022-09-14T04:08:23.625Z,13.48
2022-09-14T04:10:53.832Z,8.55
2022-09-14T04:13:20.731Z,9.75
2022-09-14T04:16:01.484Z,9.43
2022-09-14T04:18:31.424Z,11.30
2022-09-14T04:21:10.168Z,7.57
2022-09-14T04:26:29.375Z,10.55
2022-09-14T04:28:59.526Z,14.90
2022-09-14T04:31:29.642Z,9.85
2022-09-14T04:33:58.840Z,12.10
2022-09-14T04:36:31.121Z,14.23
2022-09-14T04:39:01.873Z,8.70
2022-09-14T04:41:31.886Z,9.40
2022-09-14T04:44:00.824Z,6.93
2022-09-14T04:46:32.332Z,11.48
2022-09-14T04:49:01.438Z,11.35
2022-09-14T04:51:31.674Z,10.32
2022-09-14T04:54:02.420Z,6.70
2022-09-14T04:56:34.723Z,13.50
2022-09-14T04:59:05.769Z,12.10
2022-09-14T05:01:43.011Z,7.93
2022-09-14T05:04:11.495Z,13.23
2022-09-14T05:06:42.377Z,7.30
2022-09-14T05:09:16.676Z,7.13
2022-09-14T05:11:45.301Z,13.15
2022-09-14T05:14:14.852Z,13.07
2022-09-14T05:16:44.675Z,8.90
2022-09-14T05:19:16.877Z,9.43
2022-09-14T05:21:46.899Z,10.60
2022-09-14T05:24:18.688Z,13.40
2022-09-14T05:26:47.809Z,8.77
2022-09-14T05:29:18.803Z,11.40
2022-09-14T05:31:48.102Z,9.15
2022-09-14T05:34:17.679Z,5.93
2022-09-14T05:36:47.079Z,9.20
2022-09-14T05:39:21.085Z,9.18
2022-09-14T05:41:52.767Z,10.05
2022-09-14T05:44:21.344Z,10.05
2022-09-14T05:46:49.098Z,8.85
2022-09-14T05:49:18.841Z,13.52
2022-09-14T05:51:48.358Z,7.00
2022-09-14T05:54:17.629Z,6.57
2022-09-14T05:56:46.792Z,10.57
2022-09-14T05:59:16.208Z,11.60
2022-09-14T06:01:46.108Z,10.27
2022-09-14T06:04:14.850Z,12.70
2022-09-14T06:06:52.261Z,10.23
2022-09-14T06:09:34.123Z,13.15
2022-09-14T06:12:03.997Z,8.25
2022-09-14T06:14:33.841Z,9.02
2022-09-14T06:17:05.770Z,8.07
2022-09-14T06:19:35.671Z,7.90
2022-09-14T06:22:05.417Z,8.32
2022-09-14T06:24:35.740Z,12.32
2022-09-14T06:27:08.845Z,5.63
2022-09-14T06:29:38.519Z,10.32
2022-09-14T06:32:08.351Z,7.20
2022-09-14T06:34:38.114Z,11.85
2022-09-14T06:37:07.813Z,10.25
2022-09-14T06:39:38.033Z,7.90
2022-09-14T06:42:07.902Z,6.93
2022-09-14T06:44:37.713Z,8.48
2022-09-14T06:47:07.691Z,9.68
2022-09-14T06:49:37.371Z,7.05
2022-09-14T06:52:07.277Z,9.45
2022-09-14T06:54:36.976Z,14.52
2022-09-14T06:57:06.738Z,9.18
2022-09-14T06:59:36.582Z,8.45
2022-09-14T07:02:06.683Z,8.02
2022-09-14T07:04:36.957Z,9.35
2022-09-14T07:07:06.754Z,13.50
2022-09-14T07:09:36.837Z,7.57
2022-09-14T07:12:06.636Z,9.27
2022-09-14T07:14:36.784Z,6.40
2022-09-14T07:17:05.535Z,8.80
2022-09-14T07:19:34.322Z,11.20
2022-09-14T07:22:04.136Z,8.95
2022-09-14T07:24:33.881Z,8.82
2022-09-14T07:27:04.218Z,8.98
2022-09-14T07:29:34.702Z,10.02
2022-09-14T07:32:04.582Z,7.22
2022-09-14T07:34:34.778Z,8.18
2022-09-14T07:37:04.578Z,8.63
2022-09-14T07:39:34.299Z,7.05
2022-09-14T07:42:04.099Z,9.48
2022-09-14T07:44:33.879Z,10.55
2022-09-14T07:47:05.132Z,6.57
2022-09-14T07:49:34.792Z,9.05
2022-09-14T07:52:04.478Z,10.30
2022-09-14T07:54:35.330Z,10.68
2022-09-14T07:57:05.163Z,10.45
2022-09-14T07:59:36.845Z,9.23
2022-09-14T08:02:08.837Z,8.40
2022-09-14T08:04:42.477Z,13.38
2022-09-14T08:07:12.282Z,10.18
2022-09-14T08:09:41.984Z,7.75
2022-09-14T08:12:12.544Z,8.23
2022-09-14T08:14:42.824Z,8.05
2022-09-14T08:17:12.616Z,7.10
2022-09-14T08:19:42.878Z,9.10
2022-09-14T08:22:12.638Z,10.98
2022-09-14T08:24:42.570Z,7.38
2022-09-14T08:27:12.386Z,7.88
2022-09-14T08:29:42.128Z,6.05
2022-09-14T08:32:13.745Z,7.10
2022-09-14T08:34:43.474Z,7.03
2022-09-14T08:37:13.842Z,10.20
2022-09-14T08:39:46.231Z,10.40
2022-09-14T08:42:20.774Z,5.07
2022-09-14T08:44:57.483Z,5.78
2022-09-14T08:47:34.156Z,9.02
2022-09-14T08:50:12.742Z,7.80
2022-09-14T08:52:48.351Z,7.40
2022-09-14T08:55:28.056Z,9.50
2022-09-14T08:58:21.636Z,6.55
2022-09-14T09:00:56.814Z,10.40
2022-09-14T09:03:49.775Z,5.40
2022-09-14T09:06:25.201Z,4.93
2022-09-14T09:09:32.553Z,5.65
2022-09-14T09:12:02.476Z,6.30
2022-09-14T09:14:36.920Z,8.00
2022-09-14T09:17:33.400Z,8.43
2022-09-14T09:20:29.581Z,3.90
2022-09-14T09:23:13.148Z,9.05
2022-09-14T09:26:01.457Z,5.40
2022-09-14T09:28:32.094Z,5.32
2022-09-14T09:31:05.130Z,6.18
2022-09-14T09:33:35.648Z,4.07
2022-09-14T09:36:07.146Z,3.13
2022-09-14T09:38:36.980Z,7.07
2022-09-14T09:41:27.777Z,6.93
2022-09-14T09:44:05.217Z,5.10
2022-09-14T09:46:38.340Z,7.55
2022-09-14T09:49:17.176Z,4.70
2022-09-14T09:51:47.260Z,5.95
2022-09-14T09:54:16.898Z,5.68
2022-09-14T09:56:52.485Z,6.43
2022-09-14T09:59:31.925Z,3.65
2022-09-14T10:02:30.482Z,8.98
2022-09-14T10:05:18.405Z,7.15
2022-09-14T10:08:08.098Z,5.63
2022-09-14T10:10:44.661Z,6.07
2022-09-14T10:13:28.919Z,7.05
2022-09-14T10:16:06.294Z,8.45
2022-09-14T10:18:36.082Z,7.03
2022-09-14T10:21:07.665Z,6.03
2022-09-14T10:23:39.222Z,4.90
2022-09-14T10:26:12.145Z,7.55
2022-09-14T10:28:44.292Z,7.20
2022-09-14T10:31:18.111Z,4.03
2022-09-14T10:33:53.304Z,3.97
2022-09-14T10:36:44.156Z,4.80
2022-09-14T10:39:28.097Z,5.90
2022-09-14T10:42:15.099Z,3.58
2022-09-14T10:45:02.984Z,6.63
2022-09-14T10:48:02.385Z,5.78
2022-09-14T10:50:57.372Z,8.48
2022-09-14T10:53:28.564Z,6.22
2022-09-14T10:56:19.431Z,9.63
2022-09-14T10:58:58.155Z,3.47
2022-09-14T11:01:45.086Z,8.10
2022-09-14T11:04:21.835Z,6.72
2022-09-14T11:07:16.736Z,5.78
2022-09-14T11:09:46.394Z,4.75
2022-09-14T11:12:23.219Z,3.72
2022-09-14T11:15:14.921Z,3.78
2022-09-14T11:18:10.887Z,7.00
2022-09-14T11:20:43.503Z,3.67
2022-09-14T11:23:38.267Z,4.78
2022-09-14T11:26:14.594Z,4.22
2022-09-14T11:28:59.513Z,6.28
2022-09-14T11:31:33.094Z,5.35
2022-09-14T11:34:33.016Z,2.22
2022-09-14T11:37:15.801Z,5.00
2022-09-14T11:39:47.793Z,6.00
2022-09-14T11:42:45.008Z,6.72
2022-09-14T11:45:50.509Z,4.57
2022-09-14T11:51:27.242Z,4.18
2022-09-14T11:53:57.095Z,4.03
2022-09-14T11:56:32.240Z,7.70
2022-09-14T11:59:06.713Z,4.20
2022-09-14T12:01:38.508Z,3.40
2022-09-14T12:04:14.937Z,6.60
2022-09-14T12:06:44.479Z,8.55
2022-09-14T12:09:24.589Z,6.00
2022-09-14T12:11:58.343Z,4.63
2022-09-14T12:14:34.311Z,4.85
2022-09-14T12:17:38.985Z,4.55
2022-09-14T12:20:43.069Z,7.25
2022-09-14T12:23:27.038Z,3.97
2022-09-14T12:26:05.856Z,5.55
2022-09-14T12:28:35.907Z,7.70
2022-09-14T12:31:05.591Z,4.10
2022-09-14T12:33:35.388Z,8.13
2022-09-14T12:36:13.412Z,8.18
2022-09-14T12:39:04.216Z,3.47
2022-09-14T12:41:37.109Z,6.05
2022-09-14T12:44:29.422Z,4.10
2022-09-14T12:47:25.099Z,6.45
2022-09-14T12:50:04.285Z,5.68
2022-09-14T12:52:44.029Z,5.53
2022-09-14T12:55:25.598Z,5.35
2022-09-14T12:58:07.349Z,5.43
2022-09-14T13:01:16.043Z,2.90
2022-09-14T13:03:51.874Z,5.97
2022-09-14T13:06:23.663Z,4.03
2022-09-14T13:08:57.875Z,2.92
2022-09-14T13:11:40.331Z,6.10
2022-09-14T13:14:18.726Z,4.88
2022-09-14T13:16:51.471Z,3.17
2022-09-14T13:19:28.605Z,5.45
2022-09-14T13:22:01.218Z,6.88
2022-09-14T13:24:34.702Z,3.75
2022-09-14T13:27:06.007Z,4.07
2022-09-14T13:29:36.028Z,5.88
2022-09-14T13:32:06.743Z,4.55
2022-09-14T13:34:39.042Z,5.90
2022-09-14T13:37:14.241Z,5.50
2022-09-14T13:39:51.086Z,6.03
2022-09-14T13:42:22.165Z,5.50
2022-09-14T13:44:52.670Z,4.20
2022-09-14T13:47:24.757Z,6.13
2022-09-14T13:49:55.322Z,6.35
2022-09-14T13:52:43.069Z,5.18
2022-09-14T13:55:21.933Z,5.45
2022-09-14T13:58:10.559Z,5.65
2022-09-14T14:01:00.104Z,2.97
2022-09-14T14:03:32.370Z,5.10
2022-09-14T14:06:17.530Z,6.15
2022-09-14T14:09:01.266Z,5.72
2022-09-14T14:11:43.869Z,4.18
2022-09-14T14:14:27.738Z,9.38
2022-09-14T14:17:20.100Z,4.63
2022-09-14T14:19:52.472Z,6.70
2022-09-14T14:22:58.753Z,6.60
2022-09-14T14:25:45.844Z,3.97
2022-09-14T14:28:26.418Z,6.68
2022-09-14T14:30:58.232Z,5.78
2022-09-14T14:33:28.374Z,5.35
2022-09-14T14:35:58.184Z,4.88
2022-09-14T14:38:27.849Z,4.38
2022-09-14T14:40:58.056Z,4.55
2022-09-14T14:43:28.470Z,3.03
2022-09-14T14:46:00.664Z,5.60
2022-09-14T14:48:30.026Z,6.82
2022-09-14T14:50:57.143Z,5.78
2022-09-14T14:53:26.554Z,4.18
2022-09-14T14:55:55.957Z,3.78
2022-09-14T14:58:25.756Z,2.78
2022-09-14T15:00:56.220Z,5.95
2022-09-14T15:03:25.306Z,6.47
2022-09-14T15:05:53.119Z,5.65
2022-09-14T15:08:21.616Z,5.90
2022-09-14T15:10:56.801Z,6.05
2022-09-14T15:13:25.842Z,3.85
2022-09-14T15:15:55.518Z,7.07
2022-09-14T15:18:24.686Z,7.57
2022-09-14T15:20:53.886Z,6.00
2022-09-14T15:23:23.705Z,4.72
2022-09-14T15:25:52.968Z,3.70
2022-09-14T15:28:24.621Z,4.63
2022-09-14T15:30:52.243Z,6.13
2022-09-14T15:33:20.916Z,5.07
2022-09-14T15:35:56.279Z,5.55
2022-09-14T15:38:25.890Z,7.47
2022-09-14T15:40:55.272Z,4.53
2022-09-14T15:43:24.198Z,4.57
2022-09-14T15:45:53.744Z,3.38
2022-09-14T15:48:23.250Z,6.15
2022-09-14T15:50:52.664Z,5.00
2022-09-14T15:53:22.103Z,4.85
2022-09-14T15:55:51.361Z,5.40
2022-09-14T15:58:20.758Z,5.10
2022-09-14T16:00:50.270Z,3.88
2022-09-14T16:03:19.332Z,3.60
2022-09-14T16:05:48.784Z,5.25
2022-09-14T16:08:18.178Z,5.95
2022-09-14T16:10:48.261Z,4.68
2022-09-14T16:13:16.926Z,4.82
2022-09-14T16:15:46.214Z,6.03
2022-09-14T16:18:13.075Z,4.85
2022-09-14T16:20:42.451Z,5.45
2022-09-14T16:23:12.518Z,6.43
2022-09-14T16:25:41.712Z,5.95
2022-09-14T16:28:11.296Z,5.50
2022-09-14T16:30:40.194Z,5.03
2022-09-14T16:33:10.020Z,5.70
2022-09-14T16:35:39.367Z,3.53
2022-09-14T16:38:08.844Z,5.57
2022-09-14T16:40:42.212Z,4.47
2022-09-14T16:43:11.526Z,5.35
2022-09-14T16:45:40.885Z,4.72
2022-09-14T16:48:10.271Z,4.18
2022-09-14T16:50:39.833Z,6.75
2022-09-14T16:53:09.041Z,4.32
2022-09-14T16:55:38.151Z,6.68
2022-09-14T16:58:07.692Z,4.65
2022-09-14T17:00:38.670Z,5.30
2022-09-14T17:03:11.038Z,3.45
2022-09-14T17:05:40.783Z,4.50
2022-09-14T17:08:10.681Z,5.88
2022-09-14T17:10:40.511Z,5.18
2022-09-14T17:13:08.461Z,4.95
2022-09-14T17:15:37.742Z,6.38
2022-09-14T17:18:07.401Z,4.40
2022-09-14T17:20:34.355Z,4.90
2022-09-14T17:23:03.679Z,5.00
2022-09-14T17:25:33.468Z,6.22
2022-09-14T17:28:02.771Z,5.10
2022-09-14T17:30:33.103Z,6.70
2022-09-14T17:33:02.207Z,4.72
2022-09-14T17:35:31.585Z,5.53
2022-09-14T17:38:00.088Z,6.22
2022-09-14T17:40:30.346Z,5.22
2022-09-14T17:42:59.846Z,3.92
2022-09-14T17:45:29.199Z,7.20
2022-09-14T17:47:58.257Z,4.07
2022-09-14T17:50:27.869Z,2.78
2022-09-14T17:52:57.139Z,5.47
2022-09-14T17:55:26.565Z,6.40
2022-09-14T17:57:56.068Z,7.45
2022-09-14T18:00:25.164Z,7.30
2022-09-14T18:02:54.459Z,6.70
2022-09-14T18:05:24.191Z,6.18
2022-09-14T18:07:54.399Z,4.03
2022-09-14T18:10:23.861Z,6.03
2022-09-14T18:12:53.195Z,5.25
2022-09-14T18:15:22.511Z,4.95
2022-09-14T18:17:52.519Z,4.55
2022-09-14T18:20:21.220Z,5.88
2022-09-14T18:22:50.733Z,3.85
2022-09-14T18:25:20.569Z,4.32
2022-09-14T18:27:50.025Z,6.00
2022-09-14T18:30:19.228Z,4.88
2022-09-14T18:32:46.965Z,3.58
2022-09-14T18:35:16.648Z,9.98
2022-09-14T18:37:45.598Z,7.53
2022-09-14T18:40:19.558Z,5.80
2022-09-14T18:42:48.410Z,5.45
2022-09-14T18:45:16.681Z,6.03
2022-09-14T18:47:43.744Z,4.07
2022-09-14T18:50:14.785Z,5.05
2022-09-14T18:52:42.585Z,4.05
2022-09-14T18:55:11.923Z,6.45
2022-09-14T18:57:39.535Z,4.47
2022-09-14T19:00:09.320Z,6.57
2022-09-14T19:02:38.921Z,4.20
2022-09-14T19:05:08.463Z,4.07
2022-09-14T19:07:38.420Z,4.50
2022-09-14T19:10:11.451Z,5.13
2022-09-14T19:12:41.990Z,4.13
2022-09-14T19:15:11.484Z,3.92
2022-09-14T19:17:40.584Z,3.97
2022-09-14T19:20:11.688Z,3.85
2022-09-14T19:22:38.766Z,2.65
2022-09-14T19:25:08.353Z,6.13
2022-09-14T19:27:35.181Z,3.67
2022-09-14T19:30:05.026Z,4.00
2022-09-14T19:32:34.587Z,2.28
2022-09-14T19:35:04.102Z,3.97
2022-09-14T19:37:33.683Z,3.95
2022-09-14T19:40:00.488Z,3.15
2022-09-14T19:42:28.789Z,4.53
2022-09-14T19:44:58.271Z,4.05
2022-09-14T19:47:27.722Z,3.03
2022-09-14T19:49:56.776Z,4.35
2022-09-14T19:52:26.065Z,1.48
2022-09-14T19:54:55.379Z,2.13
2022-09-14T19:57:25.029Z,1.00
2022-09-14T19:59:54.423Z,2.20
2022-09-14T20:02:23.545Z,3.17
2022-09-14T20:04:52.813Z,2.88
2022-09-14T20:07:22.338Z,1.30
2022-09-14T20:09:52.393Z,0.88
2022-09-14T20:12:22.135Z,0.93
2022-09-14T20:14:51.925Z,3.58
2022-09-14T20:17:21.725Z,1.35
2022-09-14T20:19:50.571Z,3.00
2022-09-14T20:22:19.881Z,1.58
2022-09-14T20:24:49.279Z,3.05
2022-09-14T20:27:19.020Z,3.38
2022-09-14T20:29:48.352Z,1.77
2022-09-14T20:32:20.253Z,1.65
2022-09-14T20:34:50.067Z,2.88
2022-09-14T20:37:19.385Z,2.95
2022-09-14T20:39:48.771Z,1.10
2022-09-14T20:42:16.460Z,4.38
2022-09-14T20:44:45.677Z,2.05
2022-09-14T20:47:15.135Z,1.83
2022-09-14T20:49:44.871Z,3.28
2022-09-14T20:52:13.759Z,1.20
2022-09-14T20:54:42.961Z,1.63
2022-09-14T20:57:12.367Z,1.85
2022-09-14T20:59:41.758Z,2.72
2022-09-14T21:02:11.566Z,2.17
2022-09-14T21:04:40.784Z,4.75
2022-09-14T21:07:11.086Z,2.38
2022-09-14T21:09:39.910Z,2.65
2022-09-14T21:12:11.736Z,2.47
2022-09-14T21:14:41.052Z,2.85
2022-09-14T21:17:10.823Z,2.58
2022-09-14T21:19:40.242Z,1.10
2022-09-14T21:22:10.174Z,2.97
2022-09-14T21:24:39.503Z,2.20
2022-09-14T21:27:09.007Z,1.80
2022-09-14T21:29:38.304Z,1.95
2022-09-14T21:32:09.211Z,3.08
2022-09-14T21:34:37.237Z,4.38
2022-09-14T21:37:06.565Z,1.15
2022-09-14T21:39:38.038Z,3.42
2022-09-14T21:42:07.079Z,5.15
2022-09-14T21:44:37.833Z,1.90
2022-09-14T21:47:06.821Z,1.20
2022-09-14T21:49:36.077Z,2.83
2022-09-14T21:52:05.588Z,1.00
2022-09-14T21:54:35.014Z,3.97
2022-09-14T21:57:04.504Z,1.80
2022-09-14T21:59:34.091Z,4.20
2022-09-14T22:02:03.598Z,2.25
2022-09-14T22:04:32.834Z,2.22
2022-09-14T22:07:02.324Z,2.80
2022-09-14T22:09:31.596Z,2.08
2022-09-14T22:12:01.059Z,1.73
2022-09-14T22:14:30.550Z,2.03
2022-09-14T22:16:59.862Z,4.38
2022-09-14T22:19:31.520Z,4.68
2022-09-14T22:22:00.825Z,3.22
2022-09-14T22:24:38.195Z,3.33
2022-09-14T22:27:09.017Z,4.20
2022-09-14T22:29:37.817Z,1.50
2022-09-14T22:32:12.023Z,1.73
2022-09-14T22:34:48.815Z,3.08
2022-09-14T22:37:17.755Z,2.63
2022-09-14T22:39:47.289Z,1.73
2022-09-14T22:42:16.691Z,1.92
2022-09-14T22:44:45.849Z,1.50
2022-09-14T22:47:15.408Z,3.10
2022-09-14T22:49:44.865Z,2.33
2022-09-14T22:52:14.059Z,2.53
2022-09-14T22:54:43.646Z,1.65
2022-09-14T22:57:13.196Z,1.67
2022-09-14T22:59:43.107Z,3.40
2022-09-14T23:02:11.807Z,3.75
2022-09-14T23:04:41.106Z,1.73
2022-09-14T23:07:10.279Z,2.10
2022-09-14T23:09:37.380Z,3.28
2022-09-14T23:12:07.147Z,2.67
2022-09-14T23:14:36.852Z,1.50
2022-09-14T23:17:06.204Z,2.58
2022-09-14T23:19:35.414Z,3.95
2022-09-14T23:22:04.799Z,2.78
2022-09-14T23:24:34.332Z,3.42
2022-09-14T23:27:03.831Z,2.60
2022-09-14T23:29:33.353Z,3.17
2022-09-14T23:32:02.795Z,4.20
2022-09-14T23:34:32.480Z,1.70
2022-09-14T23:37:02.060Z,3.60
2022-09-14T23:39:31.277Z,1.90
2022-09-14T23:42:01.019Z,5.03
2022-09-14T23:44:29.891Z,4.28
2022-09-14T23:46:59.265Z,2.25
2022-09-14T23:49:28.700Z,2.60
2022-09-14T23:51:57.710Z,2.55
2022-09-14T23:54:27.137Z,3.15
2022-09-14T23:56:54.563Z,3.75
2022-09-14T23:59:22.586Z,3.15
